Time;durP1;ratioP1;P1;durP2;ratioP2;P2;SDS_P1;SDS_P2;PMS_P1;PMS_P2;Temp;Humidity;BMP_temperature;BMP_pressure;BME280_temperature;BME280_humidity;BME280_pressure;Samples;Min_cycle;Max_cycle;Signal;HPM_P1;HPM_P2
2021/12/17 00:00:17;;;;;;;13.27;6.53;;;5.20;99.90;;;;;;8319047;28;20254;-67
2021/12/17 00:08:53;;;;;;;15.60;6.87;;;5.20;99.90;;;;;;8322304;28;20198;-67
2021/12/17 00:12:54;;;;;;;11.37;5.90;;;5.20;99.90;;;;;;8312993;28;20218;-66
2021/12/17 00:17:01;;;;;;;15.30;5.83;;;5.20;99.90;;;;;;8309174;28;20193;-66
2021/12/17 00:55:28;;;;;;;17.83;7.67;;;4.90;99.90;;;;;;8324809;28;20190;-65
2021/12/17 00:59:29;;;;;;;15.40;7.07;;;4.90;99.90;;;;;;8313630;28;20201;-65
2021/12/17 01:03:30;;;;;;;14.67;6.90;;;4.90;99.90;;;;;;8324775;28;20191;-66
2021/12/17 01:07:34;;;;;;;12.03;6.57;;;4.90;99.90;;;;;;8311169;28;20193;-67
2021/12/17 01:11:36;;;;;;;15.63;6.20;;;4.90;99.90;;;;;;8327203;28;20206;-66
2021/12/17 01:15:40;;;;;;;14.07;6.20;;;4.90;99.90;;;;;;8312637;28;20179;-66
2021/12/17 01:24:16;;;;;;;16.43;7.10;;;5.00;99.90;;;;;;8327824;28;20404;-66
2021/12/17 01:37:32;;;;;;;15.20;6.63;;;5.00;99.90;;;;;;8328905;28;20294;-67
2021/12/17 01:45:27;;;;;;;19.47;7.93;;;4.90;99.90;;;;;;8330023;28;20191;-66
2021/12/17 02:02:18;;;;;;;15.60;8.60;;;4.80;99.90;;;;;;8323655;28;20189;-67
2021/12/17 02:06:21;;;;;;;19.70;8.47;;;4.70;99.90;;;;;;8315192;28;20276;-67
2021/12/17 02:10:59;;;;;;;16.40;8.73;;;4.80;99.90;;;;;;8316409;28;20189;-67
2021/12/17 02:32:12;;;;;;;18.87;7.77;;;4.70;99.90;;;;;;8336759;28;20261;-67
2021/12/17 02:36:17;;;;;;;19.93;9.00;;;4.60;99.90;;;;;;8313094;28;20214;-68
2021/12/17 02:42:32;;;;;;;23.63;8.27;;;4.60;99.90;;;;;;8336544;28;20179;-66
2021/12/17 02:49:01;;;;;;;21.87;9.27;;;4.60;99.90;;;;;;8325939;28;20234;-67
2021/12/17 02:53:07;;;;;;;19.43;8.37;;;4.60;99.90;;;;;;8325744;28;20256;-67
2021/12/17 02:57:10;;;;;;;18.70;8.43;;;4.60;99.90;;;;;;8328838;28;20221;-68
2021/12/17 03:01:12;;;;;;;17.93;8.33;;;4.60;99.90;;;;;;8307637;28;20265;-68
2021/12/17 03:05:13;;;;;;;22.20;8.23;;;4.50;99.90;;;;;;8326139;28;20512;-67
2021/12/17 03:09:18;;;;;;;21.67;8.60;;;4.50;99.90;;;;;;8325269;28;20197;-68
2021/12/17 03:13:22;;;;;;;20.43;8.90;;;4.50;99.90;;;;;;8307587;28;20213;-68
2021/12/17 03:17:55;;;;;;;19.83;9.13;;;4.50;99.90;;;;;;8319578;28;20186;-65
2021/12/17 03:26:16;;;;;;;16.53;7.77;;;4.50;99.90;;;;;;8326365;28;20260;-66
2021/12/17 03:30:17;;;;;;;22.07;8.23;;;4.50;99.90;;;;;;8326464;28;20190;-67
2021/12/17 03:34:20;;;;;;;22.93;7.77;;;4.50;99.90;;;;;;8305184;28;20626;-67
2021/12/17 03:38:21;;;;;;;24.60;8.23;;;4.50;99.90;;;;;;8311163;28;20204;-66
2021/12/17 03:42:22;;;;;;;20.97;7.70;;;4.50;99.90;;;;;;8317630;28;20182;-68
2021/12/17 03:46:23;;;;;;;24.00;8.47;;;4.60;99.90;;;;;;8315194;28;20297;-66
2021/12/17 03:50:24;;;;;;;19.60;8.70;;;4.50;99.90;;;;;;8307960;28;20218;-66
2021/12/17 03:54:25;;;;;;;22.20;7.60;;;4.50;99.90;;;;;;8308509;28;20325;-66
2021/12/17 03:58:26;;;;;;;18.53;7.27;;;4.60;99.90;;;;;;8304455;28;20186;-66
2021/12/17 04:02:27;;;;;;;15.13;7.33;;;4.60;99.90;;;;;;8304180;28;20182;-66
2021/12/17 04:06:27;;;;;;;19.03;8.10;;;4.60;99.90;;;;;;8332638;28;20194;-67
2021/12/17 04:10:37;;;;;;;23.57;8.10;;;4.60;99.90;;;;;;8319475;28;20194;-68
2021/12/17 04:14:43;;;;;;;19.03;7.03;;;4.60;99.90;;;;;;8310564;28;20217;-68
2021/12/17 04:18:43;;;;;;;25.27;7.60;;;4.60;99.90;;;;;;8321852;28;20184;-66
2021/12/17 04:22:44;;;;;;;16.80;7.73;;;4.60;99.90;;;;;;8332754;28;20248;-67
2021/12/17 04:26:45;;;;;;;26.97;7.53;;;4.60;99.90;;;;;;8311134;28;20190;-66
2021/12/17 04:30:47;;;;;;;21.37;7.20;;;4.60;99.90;;;;;;8306869;28;20187;-67
2021/12/17 04:34:47;;;;;;;20.73;7.00;;;4.60;99.90;;;;;;8298483;28;20305;-66
2021/12/17 04:38:49;;;;;;;13.17;6.57;;;4.70;99.90;;;;;;8325693;28;20182;-66
2021/12/17 04:43:11;;;;;;;18.63;6.77;;;4.60;99.90;;;;;;8312946;28;20190;-66
2021/12/17 04:59:52;;;;;;;18.53;6.50;;;4.60;99.90;;;;;;8323385;28;20210;-64
2021/12/17 05:03:53;;;;;;;20.17;8.03;;;4.60;99.90;;;;;;8322401;28;20195;-65
2021/12/17 05:07:58;;;;;;;16.37;6.67;;;4.60;99.90;;;;;;8312541;28;20197;-66
2021/12/17 05:20:30;;;;;;;19.23;6.53;;;4.70;99.90;;;;;;8318867;28;20194;-67
2021/12/17 05:24:31;;;;;;;17.83;6.83;;;4.60;99.90;;;;;;8307911;28;20230;-67
2021/12/17 05:28:32;;;;;;;20.00;7.27;;;4.60;99.90;;;;;;8310147;28;20221;-68
2021/12/17 05:32:33;;;;;;;15.97;7.03;;;4.60;99.90;;;;;;8319198;28;20206;-67
2021/12/17 05:36:34;;;;;;;13.57;6.37;;;4.60;99.90;;;;;;8313916;28;20198;-66
2021/12/17 05:40:35;;;;;;;19.77;6.60;;;4.60;99.90;;;;;;8327492;28;20242;-67
2021/12/17 05:44:36;;;;;;;23.20;6.10;;;4.60;99.90;;;;;;8308857;28;20198;-67
2021/12/17 05:48:38;;;;;;;13.10;5.40;;;4.60;99.90;;;;;;8314313;28;20197;-68
2021/12/17 05:52:39;;;;;;;15.23;5.53;;;4.60;99.90;;;;;;8319559;28;20469;-67
2021/12/17 05:56:41;;;;;;;12.57;5.80;;;4.60;99.90;;;;;;8333313;28;20231;-69
2021/12/17 06:00:43;;;;;;;12.17;6.03;;;4.60;99.90;;;;;;8314733;28;20205;-68
2021/12/17 06:04:44;;;;;;;18.77;6.27;;;4.60;99.90;;;;;;8315507;28;20250;-68
2021/12/17 06:08:46;;;;;;;24.87;7.43;;;4.50;99.90;;;;;;8327019;28;20182;-68
2021/12/17 06:12:47;;;;;;;17.93;6.30;;;4.60;99.90;;;;;;8310756;28;20212;-66
2021/12/17 06:16:48;;;;;;;14.27;6.27;;;4.50;99.90;;;;;;8310349;28;20236;-66
2021/12/17 06:20:49;;;;;;;11.30;6.33;;;4.50;99.90;;;;;;8311000;28;20189;-66
2021/12/17 06:24:50;;;;;;;16.00;6.20;;;4.50;99.90;;;;;;8329302;28;20210;-66
2021/12/17 06:28:51;;;;;;;14.90;6.27;;;4.50;99.90;;;;;;8311248;28;20217;-66
2021/12/17 06:32:52;;;;;;;20.60;7.57;;;4.40;99.90;;;;;;8315010;28;20547;-66
2021/12/17 06:36:53;;;;;;;18.43;7.10;;;4.40;99.90;;;;;;8309055;28;20271;-67
2021/12/17 06:40:57;;;;;;;19.63;7.73;;;4.40;99.90;;;;;;8306842;28;20195;-67
2021/12/17 06:45:03;;;;;;;16.13;6.50;;;4.50;99.90;;;;;;8326834;28;20193;-68
2021/12/17 07:10:43;;;;;;;16.47;7.07;;;4.40;99.90;;;;;;8321347;28;20205;-67
2021/12/17 07:36:12;;;;;;;17.87;6.20;;;4.50;99.90;;;;;;8326421;28;20186;-67
2021/12/17 07:40:14;;;;;;;15.07;6.30;;;4.40;99.90;;;;;;8323881;28;20212;-67
2021/12/17 07:44:14;;;;;;;17.67;6.73;;;4.50;99.90;;;;;;8304226;28;20304;-66
2021/12/17 07:48:15;;;;;;;13.80;6.00;;;4.40;99.90;;;;;;8304778;28;20241;-67
2021/12/17 07:52:16;;;;;;;12.87;6.00;;;4.50;99.90;;;;;;8310971;28;20242;-66
2021/12/17 07:56:23;;;;;;;14.03;6.43;;;4.50;99.90;;;;;;8304199;28;20187;-68
2021/12/17 08:00:24;;;;;;;16.20;5.57;;;4.50;99.90;;;;;;8313096;28;20186;-67
2021/12/17 08:04:25;;;;;;;17.70;5.67;;;4.50;99.90;;;;;;8304429;28;20224;-66
2021/12/17 08:08:25;;;;;;;14.73;6.23;;;4.50;99.90;;;;;;8300652;28;21426;-66
2021/12/17 08:12:26;;;;;;;13.90;5.50;;;4.60;99.90;;;;;;8308361;28;20205;-66
2021/12/17 08:16:41;;;;;;;11.83;6.23;;;4.60;99.90;;;;;;8308398;28;20218;-65
2021/12/17 08:33:33;;;;;;;21.43;6.63;;;4.60;99.90;;;;;;8309739;28;20328;-66
2021/12/17 08:37:34;;;;;;;16.33;6.10;;;4.60;99.90;;;;;;8309513;28;20216;-66
2021/12/17 08:41:35;;;;;;;18.13;6.00;;;4.60;99.90;;;;;;8320245;28;20192;-66
2021/12/17 08:45:36;;;;;;;15.27;5.27;;;4.60;99.90;;;;;;8303216;28;20206;-66
2021/12/17 08:49:40;;;;;;;12.53;4.13;;;4.70;99.90;;;;;;8312612;28;20236;-68
2021/12/17 08:53:41;;;;;;;14.10;4.77;;;4.70;99.90;;;;;;8318587;28;20221;-66
2021/12/17 08:57:42;;;;;;;12.03;4.43;;;4.80;99.90;;;;;;8306117;28;20217;-66
2021/12/17 09:01:44;;;;;;;12.60;5.63;;;4.80;99.90;;;;;;8307335;28;20196;-67
2021/12/17 09:05:46;;;;;;;18.33;5.50;;;4.80;99.90;;;;;;8304470;28;20226;-66
2021/12/17 09:09:48;;;;;;;17.27;5.80;;;4.70;99.90;;;;;;8304387;28;20277;-66
2021/12/17 09:13:53;;;;;;;16.97;4.87;;;4.60;99.90;;;;;;8317263;28;20286;-66
2021/12/17 09:17:55;;;;;;;17.50;5.37;;;4.70;99.90;;;;;;8323054;28;20179;-66
2021/12/17 09:21:56;;;;;;;9.67;4.03;;;4.70;99.90;;;;;;8308229;28;20240;-66
2021/12/17 09:25:56;;;;;;;12.83;4.17;;;4.80;99.90;;;;;;8308469;28;20197;-68
2021/12/17 09:29:57;;;;;;;9.93;3.97;;;4.90;99.90;;;;;;8324186;28;20258;-67
2021/12/17 09:33:58;;;;;;;9.27;3.57;;;4.90;99.90;;;;;;8306094;28;20357;-65
2021/12/17 09:37:59;;;;;;;11.00;4.13;;;4.90;99.90;;;;;;8326095;28;20186;-66
2021/12/17 09:42:00;;;;;;;10.60;4.03;;;4.90;99.90;;;;;;8302639;28;20189;-66
2021/12/17 09:46:02;;;;;;;13.37;5.10;;;4.90;99.90;;;;;;8302814;28;20202;-67
2021/12/17 09:50:03;;;;;;;16.30;5.07;;;4.90;99.90;;;;;;8299769;28;20220;-66
2021/12/17 09:54:04;;;;;;;10.10;3.80;;;4.90;99.90;;;;;;8297506;28;20209;-66
2021/12/17 09:58:05;;;;;;;11.77;4.93;;;4.90;99.90;;;;;;8309389;28;20205;-66
2021/12/17 10:02:06;;;;;;;13.77;4.17;;;4.90;99.90;;;;;;8318790;28;20190;-65
2021/12/17 10:06:20;;;;;;;13.97;4.00;;;4.90;99.90;;;;;;8318297;28;20209;-66
2021/12/17 10:10:21;;;;;;;8.20;3.37;;;5.00;99.90;;;;;;8308971;28;20270;-65
2021/12/17 10:14:23;;;;;;;8.30;3.13;;;5.00;99.90;;;;;;8298379;28;20223;-66
2021/12/17 10:18:35;;;;;;;10.73;3.60;;;5.00;99.90;;;;;;8318207;28;20187;-65
2021/12/17 10:22:36;;;;;;;12.90;3.63;;;5.00;99.90;;;;;;8309316;28;21701;-65
2021/12/17 10:26:41;;;;;;;6.30;3.40;;;5.00;99.90;;;;;;8321817;28;20197;-66
2021/12/17 10:30:46;;;;;;;13.67;4.67;;;5.00;99.90;;;;;;8308775;28;20201;-66
2021/12/17 10:34:59;;;;;;;12.00;4.20;;;5.00;99.90;;;;;;8306299;28;20604;-65
2021/12/17 10:39:03;;;;;;;11.33;4.47;;;4.90;99.90;;;;;;8324429;28;20404;-65
2021/12/17 10:43:36;;;;;;;11.67;4.37;;;4.90;99.90;;;;;;8321396;28;20309;-66
2021/12/17 10:47:37;;;;;;;8.97;4.40;;;5.00;99.90;;;;;;8316117;28;20206;-66
2021/12/17 10:55:45;;;;;;;12.93;4.30;;;5.00;99.90;;;;;;8321435;28;20190;-66
2021/12/17 10:59:47;;;;;;;11.90;3.80;;;5.00;99.90;;;;;;8303927;28;20210;-66
2021/12/17 11:03:48;;;;;;;8.07;3.47;;;5.00;99.90;;;;;;8306709;28;20191;-67
2021/12/17 11:07:50;;;;;;;8.67;3.63;;;5.00;99.90;;;;;;8318925;28;20217;-65
2021/12/17 11:11:54;;;;;;;8.57;3.60;;;5.00;99.90;;;;;;8322406;28;20259;-66
2021/12/17 11:15:55;;;;;;;8.87;4.30;;;4.90;99.90;;;;;;8320583;28;20277;-67
2021/12/17 11:19:57;;;;;;;8.03;3.50;;;4.90;99.90;;;;;;8309416;28;20198;-67
2021/12/17 11:24:00;;;;;;;9.33;4.10;;;4.90;99.90;;;;;;8302850;28;20213;-68
2021/12/17 11:28:02;;;;;;;9.90;4.67;;;4.80;99.90;;;;;;8308483;28;20226;-69
2021/12/17 11:32:05;;;;;;;18.50;5.00;;;4.70;99.90;;;;;;8299623;28;20206;-69
2021/12/17 11:36:05;;;;;;;7.90;4.53;;;4.70;99.90;;;;;;8299476;28;20285;-67
2021/12/17 11:40:27;;;;;;;9.03;4.47;;;4.60;99.90;;;;;;8298712;28;20201;-66
2021/12/17 11:44:39;;;;;;;12.17;4.47;;;4.60;99.90;;;;;;8326195;28;20235;-67
2021/12/17 11:49:07;;;;;;;11.70;4.03;;;4.60;99.90;;;;;;8309792;28;20190;-67
2021/12/17 11:53:23;;;;;;;14.23;5.63;;;4.60;99.90;;;;;;8316904;28;20224;-67
2021/12/17 11:57:41;;;;;;;12.03;4.80;;;4.60;99.90;;;;;;8324855;28;20190;-67
2021/12/17 12:02:00;;;;;;;13.70;4.73;;;4.50;99.90;;;;;;8322403;28;20198;-66
2021/12/17 12:06:01;;;;;;;7.80;4.53;;;4.50;99.90;;;;;;8305005;28;20190;-68
2021/12/17 12:10:12;;;;;;;13.50;4.70;;;4.50;99.90;;;;;;8307822;28;20568;-67
2021/12/17 12:14:31;;;;;;;13.07;4.33;;;4.40;99.90;;;;;;8318937;28;20210;-66
2021/12/17 12:18:49;;;;;;;8.30;3.83;;;4.40;99.90;;;;;;8301010;28;20194;-66
2021/12/17 12:23:24;;;;;;;7.00;2.17;;;4.30;99.90;;;;;;8306774;28;20242;-65
2021/12/17 12:27:30;;;;;;;2.67;1.97;;;4.20;99.90;;;;;;8296511;28;20193;-65
2021/12/17 12:31:33;;;;;;;7.47;2.20;;;4.10;99.90;;;;;;8302491;28;20244;-65
2021/12/17 12:35:34;;;;;;;3.20;1.80;;;4.10;99.90;;;;;;8295543;28;20302;-66
2021/12/17 12:39:39;;;;;;;8.20;2.07;;;4.10;99.90;;;;;;8322080;28;20189;-65
2021/12/17 12:43:48;;;;;;;8.67;2.83;;;4.10;99.90;;;;;;8323224;28;20279;-67
2021/12/17 12:47:55;;;;;;;6.40;1.90;;;4.10;99.90;;;;;;8323551;28;20215;-65
2021/12/17 12:52:23;;;;;;;4.90;1.70;;;4.10;99.90;;;;;;8302487;28;20191;-64
2021/12/17 12:56:23;;;;;;;3.17;2.00;;;4.10;99.90;;;;;;8322547;28;20188;-64
2021/12/17 13:00:33;;;;;;;6.77;3.13;;;4.20;99.90;;;;;;8323121;28;20193;-64
2021/12/17 13:04:34;;;;;;;4.03;2.00;;;4.20;99.90;;;;;;8319263;28;20203;-65
2021/12/17 13:08:35;;;;;;;6.17;3.63;;;4.20;99.90;;;;;;8311545;28;20273;-64
2021/12/17 13:12:37;;;;;;;5.70;2.07;;;4.30;99.90;;;;;;8318133;28;20290;-65
2021/12/17 13:16:55;;;;;;;4.83;1.70;;;4.30;99.90;;;;;;8312839;28;20182;-65
2021/12/17 13:25:05;;;;;;;6.03;2.53;;;4.30;99.90;;;;;;8332995;28;20378;-66
2021/12/17 13:29:33;;;;;;;5.37;2.37;;;4.30;99.90;;;;;;8311534;28;20205;-64
2021/12/17 13:33:37;;;;;;;5.60;1.90;;;4.30;99.90;;;;;;8296578;28;20317;-66
2021/12/17 13:37:38;;;;;;;7.00;2.90;;;4.30;99.90;;;;;;8314131;28;20183;-66
2021/12/17 13:41:44;;;;;;;5.73;2.40;;;4.40;99.90;;;;;;8302797;28;20182;-64
2021/12/17 13:45:47;;;;;;;5.40;2.33;;;4.40;99.90;;;;;;8337701;28;20204;-64
2021/12/17 13:50:12;;;;;;;4.93;2.23;;;4.40;99.90;;;;;;8308674;28;20209;-64
2021/12/17 13:54:13;;;;;;;6.03;2.77;;;4.40;99.90;;;;;;8312052;28;20264;-65
2021/12/17 13:58:24;;;;;;;7.40;2.93;;;4.40;99.90;;;;;;8318549;28;20178;-66
2021/12/17 14:02:25;;;;;;;8.37;2.80;;;4.40;99.90;;;;;;8302734;28;20183;-64
2021/12/17 14:06:35;;;;;;;6.60;2.23;;;4.40;99.90;;;;;;8330764;28;20179;-64
2021/12/17 14:10:37;;;;;;;11.33;4.53;;;4.40;99.90;;;;;;8314111;28;20568;-64
2021/12/17 14:14:38;;;;;;;11.97;4.90;;;4.40;99.90;;;;;;8309638;28;20206;-64
2021/12/17 14:18:39;;;;;;;5.93;2.00;;;4.40;99.90;;;;;;8313973;28;20182;-64
2021/12/17 14:22:45;;;;;;;13.93;4.13;;;4.40;99.90;;;;;;8311251;28;20209;-68
2021/12/17 14:26:47;;;;;;;5.63;2.70;;;4.30;99.90;;;;;;8301667;28;20184;-64
2021/12/17 14:31:10;;;;;;;13.97;5.27;;;4.40;99.90;;;;;;8328249;28;20316;-66
2021/12/17 14:35:12;;;;;;;12.90;3.33;;;4.30;99.90;;;;;;8323123;28;20210;-66
2021/12/17 14:39:19;;;;;;;18.43;5.87;;;4.30;99.90;;;;;;8304871;28;20514;-65
2021/12/17 14:43:24;;;;;;;6.27;2.80;;;4.30;99.90;;;;;;8305170;28;20208;-65
2021/12/17 14:47:32;;;;;;;10.30;4.10;;;4.30;99.90;;;;;;8326331;28;20194;-64
2021/12/17 15:04:36;;;;;;;9.27;3.00;;;4.30;99.90;;;;;;8322197;28;20190;-65
2021/12/17 15:08:37;;;;;;;11.20;2.50;;;4.20;99.90;;;;;;8325388;28;20193;-65
2021/12/17 15:12:39;;;;;;;7.57;2.70;;;4.20;99.90;;;;;;8311089;28;20331;-64
2021/12/17 15:16:40;;;;;;;5.27;2.77;;;4.20;99.90;;;;;;8306738;28;20194;-64
2021/12/17 15:20:44;;;;;;;9.80;2.83;;;4.20;99.90;;;;;;8323160;28;20209;-67
2021/12/17 15:24:44;;;;;;;8.00;2.60;;;4.20;99.90;;;;;;8305208;28;20590;-69
2021/12/17 15:28:45;;;;;;;4.97;2.43;;;4.20;99.90;;;;;;8319870;28;20204;-68
2021/12/17 15:32:47;;;;;;;7.10;2.40;;;4.20;99.90;;;;;;8323591;28;20332;-68
2021/12/17 15:36:49;;;;;;;5.90;2.10;;;4.10;99.90;;;;;;8301368;28;20272;-67
2021/12/17 15:40:51;;;;;;;6.93;2.30;;;4.10;99.90;;;;;;8319792;28;20209;-69
2021/12/17 15:44:52;;;;;;;5.47;2.50;;;4.10;99.90;;;;;;8320018;28;20198;-67
2021/12/17 15:48:53;;;;;;;6.57;2.87;;;4.10;99.90;;;;;;8325811;28;20193;-67
2021/12/17 15:52:54;;;;;;;10.03;2.40;;;4.10;99.90;;;;;;8304091;28;20210;-67
2021/12/17 15:56:55;;;;;;;13.93;4.40;;;4.10;99.90;;;;;;8306161;28;20221;-68
2021/12/17 16:00:56;;;;;;;8.47;3.07;;;4.10;99.90;;;;;;8318927;28;20205;-72
2021/12/17 16:04:57;;;;;;;6.93;2.73;;;4.10;99.90;;;;;;8300067;28;20201;-67
2021/12/17 16:09:01;;;;;;;10.60;3.23;;;4.00;99.90;;;;;;8327722;28;20174;-68
2021/12/17 16:18:11;;;;;;;12.33;3.80;;;4.10;99.90;;;;;;8325640;28;20197;-68
2021/12/17 16:21:48;;;;;;;5.50;3.03;;;4.10;99.90;;;;;;8323940;28;20195;-67
2021/12/17 16:25:49;;;;;;;7.53;3.20;;;4.10;99.90;;;;;;8303114;28;20214;-67
2021/12/17 16:29:50;;;;;;;10.13;4.67;;;4.10;99.90;;;;;;8312705;28;20601;-68
2021/12/17 16:33:54;;;;;;;6.33;3.33;;;4.10;99.90;;;;;;8324813;28;20266;-67
2021/12/17 16:37:55;;;;;;;11.77;3.13;;;4.10;99.90;;;;;;8315446;28;20277;-67
2021/12/17 16:41:58;;;;;;;5.13;2.47;;;4.10;99.90;;;;;;8336719;28;20193;-68
2021/12/17 16:47:01;;;;;;;9.37;3.27;;;4.00;99.90;;;;;;8327467;28;20196;-68
2021/12/17 16:50:26;;;;;;;8.43;2.93;;;4.00;99.90;;;;;;8321356;28;20198;-67
2021/12/17 16:54:27;;;;;;;8.17;2.73;;;4.00;99.90;;;;;;8322766;28;20213;-68
2021/12/17 16:58:29;;;;;;;6.53;3.03;;;4.00;99.90;;;;;;8313771;28;20210;-67
2021/12/17 17:02:30;;;;;;;7.10;3.20;;;4.10;99.90;;;;;;8320340;28;20213;-68
2021/12/17 17:06:31;;;;;;;9.03;4.27;;;4.00;99.90;;;;;;8322737;28;20198;-68
2021/12/17 17:10:34;;;;;;;8.20;3.27;;;4.00;99.90;;;;;;8318233;28;20213;-67
2021/12/17 17:14:35;;;;;;;5.23;3.20;;;4.00;99.90;;;;;;8314412;28;20212;-67
2021/12/17 17:18:38;;;;;;;6.40;3.07;;;4.00;99.90;;;;;;8310906;28;20210;-68
2021/12/17 17:22:39;;;;;;;8.33;3.37;;;4.00;99.90;;;;;;8310867;28;20212;-70
2021/12/17 17:26:40;;;;;;;6.83;3.37;;;4.00;99.90;;;;;;8329310;28;20190;-67
2021/12/17 17:30:42;;;;;;;8.53;3.50;;;4.00;99.90;;;;;;8303210;28;20186;-68
2021/12/17 17:34:43;;;;;;;4.87;3.30;;;4.00;99.90;;;;;;8302237;28;20218;-66
2021/12/17 17:38:44;;;;;;;4.73;3.03;;;4.00;99.90;;;;;;8330158;28;20198;-67
2021/12/17 17:42:45;;;;;;;5.13;3.60;;;4.00;99.90;;;;;;8325800;28;20190;-68
2021/12/17 17:46:47;;;;;;;9.47;3.67;;;4.00;99.90;;;;;;8322422;28;20224;-68
2021/12/17 17:50:51;;;;;;;8.47;3.80;;;4.00;99.90;;;;;;8303020;28;20189;-68
2021/12/17 17:54:52;;;;;;;6.70;3.57;;;4.00;99.90;;;;;;8299154;28;20215;-68
2021/12/17 17:58:53;;;;;;;6.90;3.73;;;3.90;99.90;;;;;;8307299;28;20181;-69
2021/12/17 18:02:54;;;;;;;7.30;3.33;;;3.90;99.90;;;;;;8303812;28;20198;-68
2021/12/17 18:06:56;;;;;;;7.30;3.60;;;3.90;99.90;;;;;;8304126;28;20190;-69
2021/12/17 18:10:57;;;;;;;6.13;3.30;;;3.90;99.90;;;;;;8300503;28;20222;-69
2021/12/17 18:14:58;;;;;;;8.70;4.30;;;3.90;99.90;;;;;;8317702;28;20225;-69
2021/12/17 18:18:59;;;;;;;12.33;4.30;;;3.90;99.90;;;;;;8316327;28;20187;-69
2021/12/17 18:23:00;;;;;;;11.60;5.27;;;3.90;99.90;;;;;;8306076;28;20305;-69
2021/12/17 18:27:04;;;;;;;9.23;4.23;;;3.90;99.90;;;;;;8331344;28;20198;-69
2021/12/17 18:31:06;;;;;;;9.37;4.37;;;3.90;99.90;;;;;;8328926;28;20183;-69
2021/12/17 18:35:17;;;;;;;12.03;4.50;;;3.90;99.90;;;;;;8300299;28;20244;-69
2021/12/17 18:39:19;;;;;;;6.93;4.80;;;3.90;99.90;;;;;;8301526;28;20195;-68
2021/12/17 18:47:42;;;;;;;9.20;4.93;;;3.90;99.90;;;;;;8325553;28;20264;-67
2021/12/17 18:51:43;;;;;;;9.87;5.37;;;4.00;99.90;;;;;;8303026;28;20210;-70
2021/12/17 18:55:47;;;;;;;10.63;5.00;;;3.90;99.90;;;;;;8323827;28;20214;-68
2021/12/17 18:59:49;;;;;;;9.27;4.40;;;3.90;99.90;;;;;;8322051;28;20187;-70
2021/12/17 19:03:52;;;;;;;6.90;4.33;;;3.90;99.90;;;;;;8312828;28;20193;-69
2021/12/17 19:07:53;;;;;;;9.87;4.83;;;3.90;99.90;;;;;;8315285;28;20187;-69
2021/12/17 19:11:55;;;;;;;7.57;4.70;;;3.90;99.90;;;;;;8321969;28;20186;-69
2021/12/17 19:15:56;;;;;;;7.50;4.43;;;3.80;99.90;;;;;;8303436;28;20297;-69
2021/12/17 19:20:11;;;;;;;8.37;5.00;;;3.80;99.90;;;;;;8316775;28;20299;-68
2021/12/17 19:24:13;;;;;;;5.27;3.90;;;3.80;99.90;;;;;;8322432;28;20214;-67
2021/12/17 19:28:14;;;;;;;9.43;4.20;;;3.60;99.90;;;;;;8325937;28;20178;-68
2021/12/17 19:32:15;;;;;;;7.77;4.23;;;3.50;99.90;;;;;;8310483;28;20233;-69
2021/12/17 19:36:17;;;;;;;12.80;6.10;;;3.50;99.90;;;;;;8308693;28;20186;-69
2021/12/17 19:40:18;;;;;;;9.37;5.27;;;3.50;99.90;;;;;;8315551;28;20197;-70
2021/12/17 19:44:19;;;;;;;13.40;6.07;;;3.50;99.90;;;;;;8307823;28;20214;-68
2021/12/17 19:52:24;;;;;;;7.93;4.70;;;3.50;99.90;;;;;;8318231;28;20217;-68
2021/12/17 19:56:26;;;;;;;10.63;5.43;;;3.50;99.90;;;;;;8309670;28;20505;-70
2021/12/17 20:00:27;;;;;;;6.30;4.03;;;3.50;99.90;;;;;;8309837;28;20190;-67
2021/12/17 20:04:28;;;;;;;12.20;5.20;;;3.60;99.90;;;;;;8309653;28;20194;-67
2021/12/17 20:08:29;;;;;;;8.97;4.77;;;3.60;99.90;;;;;;8312280;28;20194;-69
2021/12/17 20:12:30;;;;;;;9.37;5.57;;;3.60;99.90;;;;;;8312301;28;20219;-69
2021/12/17 20:16:31;;;;;;;12.53;4.70;;;3.60;99.90;;;;;;8288957;28;20358;-69
2021/12/17 20:20:32;;;;;;;7.03;4.20;;;3.60;99.90;;;;;;8308663;28;20329;-68
2021/12/17 20:24:37;;;;;;;11.17;4.57;;;3.60;99.90;;;;;;8293362;28;20214;-68
2021/12/17 20:28:41;;;;;;;11.40;4.30;;;3.70;99.90;;;;;;8306598;28;20200;-68
2021/12/17 20:32:43;;;;;;;10.77;5.00;;;3.60;99.90;;;;;;8298392;28;20303;-71
2021/12/17 20:36:44;;;;;;;13.73;5.30;;;3.70;99.90;;;;;;8293615;28;20210;-68
2021/12/17 20:40:46;;;;;;;24.50;8.67;;;3.70;99.90;;;;;;8295803;28;20215;-69
2021/12/17 20:44:47;;;;;;;13.70;6.87;;;3.70;99.90;;;;;;8313700;28;20206;-69
2021/12/17 20:48:49;;;;;;;9.77;4.27;;;3.60;99.90;;;;;;8294344;28;20187;-68
2021/12/17 20:52:50;;;;;;;6.30;3.43;;;3.70;99.90;;;;;;8297056;28;20299;-69
2021/12/17 20:56:51;;;;;;;10.17;4.30;;;3.70;99.90;;;;;;8294774;28;20245;-68
2021/12/17 21:00:52;;;;;;;9.40;3.80;;;3.70;99.90;;;;;;8314230;28;20210;-69
2021/12/17 21:04:56;;;;;;;10.03;4.13;;;3.60;99.90;;;;;;8318629;28;20194;-68
2021/12/17 21:08:57;;;;;;;9.87;3.67;;;3.60;99.90;;;;;;8322562;28;20205;-72
2021/12/17 21:13:00;;;;;;;8.60;3.90;;;3.60;99.90;;;;;;8315342;28;20210;-69
2021/12/17 21:17:03;;;;;;;10.53;4.40;;;3.60;99.90;;;;;;8301945;28;20213;-69
2021/12/17 21:21:03;;;;;;;8.83;4.20;;;3.60;99.90;;;;;;8304303;28;20194;-69
2021/12/17 21:25:05;;;;;;;13.57;3.90;;;3.60;99.90;;;;;;8316715;28;20384;-68
2021/12/17 21:29:08;;;;;;;11.73;4.37;;;3.60;99.90;;;;;;8316179;28;20193;-69
2021/12/17 21:33:09;;;;;;;9.57;3.27;;;3.60;99.90;;;;;;8308813;28;20212;-68
2021/12/17 21:37:10;;;;;;;8.33;3.50;;;3.60;99.90;;;;;;8303444;28;20187;-69
2021/12/17 21:41:12;;;;;;;9.87;3.27;;;3.60;99.90;;;;;;8301678;28;20201;-70
2021/12/17 21:45:14;;;;;;;9.37;3.13;;;3.60;99.90;;;;;;8317380;28;20205;-72
2021/12/17 21:49:14;;;;;;;18.80;7.07;;;3.50;99.90;;;;;;8302671;28;20187;-68
2021/12/17 21:53:15;;;;;;;14.47;4.80;;;3.40;99.90;;;;;;8298522;28;20221;-70
2021/12/17 21:57:17;;;;;;;13.13;3.63;;;3.40;99.90;;;;;;8322409;28;20605;-68
2021/12/17 22:01:18;;;;;;;13.70;5.47;;;3.40;99.90;;;;;;8335970;28;20192;-70
2021/12/17 22:05:22;;;;;;;8.37;3.87;;;3.40;99.90;;;;;;8314644;28;20240;-70
2021/12/17 22:09:23;;;;;;;11.07;3.97;;;3.30;99.90;;;;;;8344219;23;20257;-83
2021/12/17 22:13:25;;;;;;;27.23;8.67;;;3.20;99.90;;;;;;8303861;28;20214;-86
2021/12/17 22:17:28;;;;;;;4.27;3.33;;;3.10;99.90;;;;;;8322815;28;20186;-83
2021/12/17 22:21:29;;;;;;;6.57;3.13;;;3.10;99.90;;;;;;8304692;28;20192;-83
2021/12/17 22:25:33;;;;;;;6.17;3.23;;;2.90;99.90;;;;;;8305893;28;20198;-85
2021/12/17 22:29:35;;;;;;;4.20;3.23;;;2.70;99.90;;;;;;8306382;28;20186;-85
2021/12/17 22:33:36;;;;;;;7.37;3.90;;;2.60;99.90;;;;;;8305486;28;20202;-81
2021/12/17 22:37:38;;;;;;;9.47;3.80;;;2.50;99.90;;;;;;8303635;28;20190;-81
2021/12/17 22:41:44;;;;;;;6.00;3.43;;;2.40;99.90;;;;;;8301069;28;20175;-81
2021/12/17 22:45:45;;;;;;;5.80;4.10;;;2.30;99.90;;;;;;8318402;28;20191;-83
2021/12/17 22:49:46;;;;;;;7.43;3.57;;;2.20;99.90;;;;;;8299831;28;20242;-84
2021/12/17 22:53:50;;;;;;;7.90;3.83;;;2.00;99.90;;;;;;8303940;28;20480;-82
2021/12/17 22:57:52;;;;;;;6.37;3.27;;;1.90;99.90;;;;;;8315451;28;20182;-82
2021/12/17 23:01:54;;;;;;;7.13;3.30;;;2.00;99.90;;;;;;8333252;28;20219;-82
2021/12/17 23:05:55;;;;;;;7.33;3.53;;;2.20;99.90;;;;;;8314577;28;20199;-84
2021/12/17 23:09:57;;;;;;;10.20;3.73;;;2.30;99.90;;;;;;8321555;28;20233;-84
2021/12/17 23:14:00;;;;;;;11.87;4.10;;;2.40;99.90;;;;;;8308133;28;20214;-83
2021/12/17 23:18:06;;;;;;;9.90;4.40;;;2.50;99.90;;;;;;8307104;28;20186;-83
2021/12/17 23:22:07;;;;;;;9.47;3.47;;;2.50;99.90;;;;;;8311665;28;20189;-83
2021/12/17 23:26:09;;;;;;;12.80;3.77;;;2.50;99.90;;;;;;8297526;28;20188;-80
2021/12/17 23:30:10;;;;;;;6.17;4.10;;;2.50;99.90;;;;;;8305343;28;20191;-81
2021/12/17 23:34:41;;;;;;;13.17;4.27;;;2.50;99.90;;;;;;8301925;28;20211;-82
2021/12/17 23:38:34;;;;;;;10.70;4.23;;;2.60;99.90;;;;;;8321216;28;20194;-83
2021/12/17 23:42:35;;;;;;;8.00;3.80;;;2.70;99.90;;;;;;8311289;28;20217;-83
2021/12/17 23:46:37;;;;;;;9.63;4.40;;;2.70;99.90;;;;;;8302368;28;20192;-84
2021/12/17 23:50:38;;;;;;;13.77;3.80;;;2.70;99.90;;;;;;8315443;28;20186;-85
2021/12/17 23:54:39;;;;;;;9.47;4.07;;;2.70;99.90;;;;;;8308322;28;20217;-82
2021/12/17 23:58:40;;;;;;;5.40;3.03;;;2.80;99.90;;;;;;8311098;28;20179;-84
